createdAt,value
2023-04-22T00:00:08.791Z,75.62
2023-04-22T00:01:12.551Z,75.71
2023-04-22T00:02:16.707Z,75.72
2023-04-22T00:03:19.410Z,75.55
2023-04-22T00:04:22.691Z,75.67
2023-04-22T00:05:25.557Z,75.76
2023-04-22T00:06:27.945Z,75.70
2023-04-22T00:07:30.212Z,75.81
2023-04-22T00:08:32.426Z,75.80
2023-04-22T00:09:34.761Z,75.96
2023-04-22T00:10:37.255Z,76.00
2023-04-22T00:11:39.530Z,76.10
2023-04-22T00:12:41.660Z,75.94
2023-04-22T00:13:45.084Z,75.89
2023-04-22T00:14:47.252Z,76.09
2023-04-22T00:15:51.567Z,76.10
2023-04-22T00:16:54.152Z,76.14
2023-04-22T00:17:57.637Z,76.00
2023-04-22T00:19:00.181Z,76.00
2023-04-22T00:20:03.940Z,75.75
2023-04-22T00:21:07.279Z,75.74
2023-04-22T00:22:10.695Z,75.89
2023-04-22T00:23:14.643Z,76.13
2023-04-22T00:24:17.304Z,76.09
2023-04-22T00:25:19.421Z,76.35
2023-04-22T00:26:22.141Z,75.94
2023-04-22T00:27:25.150Z,76.04
2023-04-22T00:28:28.111Z,76.16
2023-04-22T00:29:30.214Z,76.68
2023-04-22T00:30:33.341Z,76.65
2023-04-22T00:31:35.717Z,76.81
2023-04-22T00:32:39.627Z,76.71
2023-04-22T00:33:42.193Z,76.83
2023-04-22T00:34:44.504Z,76.97
2023-04-22T00:35:46.720Z,77.08
2023-04-22T00:36:50.766Z,77.09
2023-04-22T00:37:53.132Z,77.08
2023-04-22T00:38:56.152Z,77.17
2023-04-22T00:39:58.718Z,77.35
2023-04-22T00:41:04.560Z,77.36
2023-04-22T00:42:09.477Z,77.53
2023-04-22T00:43:12.858Z,77.73
2023-04-22T00:44:15.305Z,78.01
2023-04-22T00:45:18.948Z,78.46
2023-04-22T00:46:21.628Z,78.41
2023-04-22T00:47:25.826Z,78.33
2023-04-22T00:48:29.769Z,78.45
2023-04-22T00:49:32.389Z,78.32
2023-04-22T00:50:34.606Z,78.53
2023-04-22T00:51:36.736Z,78.72
2023-04-22T00:52:39.353Z,78.97
2023-04-22T00:53:41.667Z,79.22
2023-04-22T00:54:45.053Z,79.24
2023-04-22T00:55:48.077Z,79.53
2023-04-22T00:56:50.666Z,79.60
2023-04-22T00:57:55.156Z,79.78
2023-04-22T00:58:58.040Z,79.85
2023-04-22T01:00:00.764Z,79.74
2023-04-22T01:01:03.903Z,79.78
2023-04-22T01:02:06.990Z,79.92
2023-04-22T01:03:09.997Z,79.87
2023-04-22T01:04:14.101Z,79.90
2023-04-22T01:05:16.680Z,79.88
2023-04-22T01:06:22.384Z,79.76
2023-04-22T01:07:25.310Z,79.62
2023-04-22T01:08:31.806Z,79.63
2023-04-22T01:09:35.526Z,79.11
2023-04-22T01:10:39.328Z,78.87
2023-04-22T01:11:43.221Z,78.64
2023-04-22T01:12:45.799Z,78.66
2023-04-22T01:13:48.119Z,78.64
2023-04-22T01:14:51.011Z,78.64
2023-04-22T01:15:54.316Z,78.52
2023-04-22T01:16:57.206Z,78.33
2023-04-22T01:18:01.936Z,78.05
2023-04-22T01:19:05.905Z,78.15
2023-04-22T01:20:10.100Z,78.35
2023-04-22T01:21:12.505Z,78.05
2023-04-22T01:22:16.233Z,77.89
2023-04-22T01:23:22.353Z,77.39
2023-04-22T01:24:25.919Z,77.29
2023-04-22T01:25:28.562Z,76.64
2023-04-22T01:26:31.612Z,76.54
2023-04-22T01:27:35.504Z,76.48
2023-04-22T01:28:38.872Z,76.79
2023-04-22T01:29:42.173Z,77.08
2023-04-22T01:30:45.271Z,77.08
2023-04-22T01:31:48.139Z,77.11
2023-04-22T01:32:51.253Z,77.06
2023-04-22T01:33:55.961Z,77.08
2023-04-22T01:34:58.766Z,76.91
2023-04-22T01:36:01.520Z,76.70
2023-04-22T01:37:03.975Z,76.50
2023-04-22T01:38:08.963Z,76.47
2023-04-22T01:39:12.197Z,76.61
2023-04-22T01:40:17.947Z,76.34
2023-04-22T01:41:20.568Z,76.37
2023-04-22T01:42:23.394Z,76.35
2023-04-22T01:43:26.297Z,76.79
2023-04-22T01:44:28.833Z,76.75
2023-04-22T01:45:31.439Z,76.60
2023-04-22T01:46:34.598Z,76.25
2023-04-22T01:47:38.898Z,76.33
2023-04-22T01:48:41.670Z,76.48
2023-04-22T01:49:44.016Z,76.64
2023-04-22T01:50:48.277Z,76.48
2023-04-22T01:51:50.671Z,76.45
2023-04-22T01:52:53.255Z,76.25
2023-04-22T01:53:57.715Z,76.19
2023-04-22T01:55:02.039Z,76.08
2023-04-22T01:56:05.964Z,75.53
2023-04-22T01:57:13.004Z,75.71
2023-04-22T01:58:15.990Z,75.80
2023-04-22T01:59:20.910Z,75.70
2023-04-22T02:00:24.174Z,75.66
2023-04-22T02:01:26.474Z,75.59
2023-04-22T02:02:28.892Z,75.36
2023-04-22T02:03:32.422Z,75.20
2023-04-22T02:04:35.983Z,74.93
2023-04-22T02:05:40.305Z,75.01
2023-04-22T02:06:42.900Z,74.76
2023-04-22T02:07:45.222Z,74.58
2023-04-22T02:08:48.699Z,74.65
2023-04-22T02:09:51.247Z,74.65
2023-04-22T02:10:53.860Z,74.00
2023-04-22T02:11:56.368Z,73.75
2023-04-22T02:12:59.012Z,73.56
2023-04-22T02:14:01.335Z,73.64
2023-04-22T02:15:04.433Z,73.38
2023-04-22T02:16:08.724Z,72.92
2023-04-22T02:17:11.628Z,72.70
2023-04-22T02:18:17.787Z,72.63
2023-04-22T02:19:20.435Z,72.47
2023-04-22T02:20:24.018Z,72.11
2023-04-22T02:21:29.346Z,72.09
2023-04-22T02:22:32.713Z,72.31
2023-04-22T02:23:35.890Z,72.26
2023-04-22T02:24:38.177Z,72.50
2023-04-22T02:25:40.646Z,72.65
2023-04-22T02:26:43.136Z,72.91
2023-04-22T02:27:45.784Z,72.96
2023-04-22T02:28:48.463Z,72.79
2023-04-22T02:29:50.864Z,72.64
2023-04-22T02:30:53.168Z,72.46
2023-04-22T02:31:56.354Z,72.64
2023-04-22T02:32:58.703Z,72.85
2023-04-22T02:34:02.096Z,72.96
2023-04-22T02:35:05.526Z,73.10
2023-04-22T02:36:08.350Z,72.98
2023-04-22T02:37:11.184Z,73.08
2023-04-22T02:38:13.699Z,73.01
2023-04-22T02:39:17.890Z,72.72
2023-04-22T02:40:20.854Z,72.57
2023-04-22T02:41:23.390Z,72.06
2023-04-22T02:42:25.998Z,72.00
2023-04-22T02:43:28.709Z,72.00
2023-04-22T02:44:31.129Z,72.17
2023-04-22T02:45:33.676Z,72.57
2023-04-22T02:46:39.895Z,72.45
2023-04-22T02:47:42.493Z,72.65
2023-04-22T02:48:45.943Z,72.46
2023-04-22T02:49:48.605Z,72.44
2023-04-22T02:50:51.200Z,72.31
2023-04-22T02:51:53.931Z,72.34
2023-04-22T02:52:56.404Z,72.28
2023-04-22T02:53:59.648Z,72.46
2023-04-22T02:55:02.126Z,72.19
2023-04-22T02:56:05.435Z,72.04
2023-04-22T02:57:09.478Z,71.96
2023-04-22T02:58:11.845Z,71.97
2023-04-22T02:59:14.215Z,72.07
2023-04-22T03:00:17.240Z,72.23
2023-04-22T03:01:19.713Z,72.12
2023-04-22T03:02:23.465Z,72.19
2023-04-22T03:03:31.342Z,72.30
2023-04-22T03:04:33.937Z,72.41
2023-04-22T03:05:36.419Z,71.81
2023-04-22T03:06:38.977Z,71.65
2023-04-22T03:07:41.712Z,71.75
2023-04-22T03:08:43.949Z,71.64
2023-04-22T03:09:46.576Z,71.60
2023-04-22T03:10:49.000Z,71.77
2023-04-22T03:11:51.227Z,71.51
2023-04-22T03:12:53.983Z,71.38
2023-04-22T03:13:56.590Z,71.43
2023-04-22T03:14:59.062Z,71.43
2023-04-22T03:16:03.904Z,71.84
2023-04-22T03:17:08.224Z,71.62
2023-04-22T03:18:11.109Z,71.45
2023-04-22T03:19:13.983Z,71.33
2023-04-22T03:20:16.572Z,71.13
2023-04-22T03:21:19.671Z,70.96
2023-04-22T03:22:22.148Z,70.75
2023-04-22T03:23:25.612Z,70.51
2023-04-22T03:24:28.126Z,70.23
2023-04-22T03:25:30.951Z,70.04
2023-04-22T03:26:33.483Z,70.34
2023-04-22T03:27:35.932Z,69.76
2023-04-22T03:28:38.840Z,69.76
2023-04-22T03:29:42.358Z,69.58
2023-04-22T03:30:45.076Z,69.48
2023-04-22T03:31:47.910Z,69.43
2023-04-22T03:32:51.883Z,69.34
2023-04-22T03:33:56.680Z,69.34
2023-04-22T03:35:00.985Z,69.46
2023-04-22T03:36:05.501Z,69.37
2023-04-22T03:37:09.588Z,69.49
2023-04-22T03:38:11.847Z,69.70
2023-04-22T03:39:15.986Z,69.58
2023-04-22T03:40:19.310Z,69.81
2023-04-22T03:41:24.754Z,69.99
2023-04-22T03:42:28.200Z,70.21
2023-04-22T03:43:32.483Z,70.16
2023-04-22T03:44:39.839Z,70.39
2023-04-22T03:45:42.557Z,70.28
2023-04-22T03:46:46.870Z,70.36
2023-04-22T03:47:51.462Z,69.87
2023-04-22T03:48:55.788Z,69.89
2023-04-22T03:50:00.568Z,69.85
2023-04-22T03:51:03.297Z,69.40
2023-04-22T03:52:08.105Z,68.98
2023-04-22T03:53:11.230Z,68.63
2023-04-22T03:54:14.868Z,68.58
2023-04-22T03:55:19.016Z,68.45
2023-04-22T03:56:23.826Z,68.45
2023-04-22T03:57:27.518Z,68.50
2023-04-22T03:58:31.595Z,68.43
2023-04-22T03:59:34.724Z,68.17
2023-04-22T04:00:37.939Z,68.02
2023-04-22T04:01:42.350Z,67.99
2023-04-22T04:02:46.130Z,67.96
2023-04-22T04:03:50.487Z,68.27
2023-04-22T04:04:53.837Z,67.81
2023-04-22T04:05:56.898Z,67.79
2023-04-22T04:06:59.618Z,67.43
2023-04-22T04:08:02.653Z,67.38
2023-04-22T04:09:05.138Z,66.86
2023-04-22T04:10:12.250Z,66.71
2023-04-22T04:11:14.885Z,66.96
2023-04-22T04:12:17.397Z,67.03
2023-04-22T04:13:20.228Z,66.93
2023-04-22T04:14:24.402Z,66.46
2023-04-22T04:15:27.713Z,66.34
2023-04-22T04:16:30.787Z,66.13
2023-04-22T04:17:36.013Z,66.27
2023-04-22T04:18:38.787Z,66.27
2023-04-22T04:19:41.526Z,66.23
2023-04-22T04:20:44.195Z,66.01
2023-04-22T04:21:46.666Z,66.07
2023-04-22T04:22:48.945Z,65.85
2023-04-22T04:23:51.922Z,65.52
2023-04-22T04:24:56.214Z,65.60
2023-04-22T04:26:05.172Z,65.05
2023-04-22T04:27:09.002Z,64.61
2023-04-22T04:28:13.580Z,64.48
2023-04-22T04:29:16.022Z,64.28
2023-04-22T04:30:21.002Z,64.13
2023-04-22T04:31:25.131Z,63.75
2023-04-22T04:32:27.770Z,63.89
2023-04-22T04:33:31.854Z,63.25
2023-04-22T04:34:34.293Z,62.90
2023-04-22T04:35:37.646Z,62.88
2023-04-22T04:36:42.524Z,62.47
2023-04-22T04:37:47.073Z,62.14
2023-04-22T04:38:52.063Z,61.95
2023-04-22T04:39:57.251Z,61.09
2023-04-22T04:41:01.320Z,61.10
2023-04-22T04:42:04.632Z,61.21
2023-04-22T04:43:09.674Z,60.67
2023-04-22T04:44:13.877Z,60.66
2023-04-22T04:45:17.158Z,59.80
2023-04-22T04:46:20.317Z,60.20
2023-04-22T04:47:22.971Z,59.39
2023-04-22T04:48:27.360Z,59.33
2023-04-22T04:49:31.555Z,58.98
2023-04-22T04:50:35.169Z,59.20
2023-04-22T04:51:39.083Z,59.09
2023-04-22T04:52:41.741Z,58.80
2023-04-22T04:53:44.298Z,58.72
2023-04-22T04:54:46.642Z,58.85
2023-04-22T04:55:49.343Z,58.23
2023-04-22T04:56:53.888Z,57.98
2023-04-22T04:57:56.216Z,57.98
2023-04-22T04:58:58.511Z,57.62
2023-04-22T05:00:04.283Z,57.74
2023-04-22T05:01:06.733Z,57.49
2023-04-22T05:02:09.878Z,57.46
2023-04-22T05:03:12.661Z,57.30
2023-04-22T05:04:15.133Z,56.96
2023-04-22T05:05:18.696Z,56.66
2023-04-22T05:06:22.257Z,56.22
2023-04-22T05:07:26.570Z,56.20
2023-04-22T05:08:28.950Z,56.34
2023-04-22T05:09:35.008Z,56.42
2023-04-22T05:10:37.829Z,55.80
2023-04-22T05:11:40.280Z,55.64
2023-04-22T05:12:46.998Z,55.57
2023-04-22T05:13:51.209Z,54.75
2023-04-22T05:14:55.261Z,55.15
2023-04-22T05:15:59.185Z,54.83
2023-04-22T05:17:02.063Z,55.06
2023-04-22T05:18:06.005Z,55.16
2023-04-22T05:19:08.473Z,54.67
2023-04-22T05:20:11.668Z,55.33
2023-04-22T05:21:16.184Z,55.33
2023-04-22T05:22:20.777Z,55.18
2023-04-22T05:23:23.466Z,54.97
2023-04-22T05:24:27.570Z,55.26
2023-04-22T05:25:30.738Z,54.71
2023-04-22T05:26:35.106Z,54.71
2023-04-22T05:27:41.781Z,54.37
2023-04-22T05:28:46.119Z,54.62
2023-04-22T05:29:48.857Z,54.95
2023-04-22T05:30:53.200Z,54.43
2023-04-22T05:31:55.720Z,54.80
2023-04-22T05:32:58.670Z,53.98
2023-04-22T05:34:01.125Z,54.29
2023-04-22T05:35:04.946Z,53.83
2023-04-22T05:36:08.274Z,53.54
2023-04-22T05:37:11.023Z,54.28
2023-04-22T05:38:15.190Z,54.28
2023-04-22T05:39:17.808Z,54.48
2023-04-22T05:40:21.216Z,54.47
2023-04-22T05:41:24.172Z,54.49
2023-04-22T05:42:26.927Z,54.54
2023-04-22T05:43:29.724Z,53.92
2023-04-22T05:44:34.367Z,53.91
2023-04-22T05:45:37.178Z,54.07
2023-04-22T05:46:40.424Z,54.02
2023-04-22T05:47:43.434Z,54.11
2023-04-22T05:48:45.626Z,53.56
2023-04-22T05:49:49.721Z,53.24
2023-04-22T05:50:53.999Z,53.38
2023-04-22T05:51:56.123Z,53.44
2023-04-22T05:53:01.307Z,53.68
2023-04-22T05:54:04.468Z,53.05
2023-04-22T05:55:08.626Z,53.40
2023-04-22T05:56:11.407Z,53.48
2023-04-22T05:57:14.339Z,53.25
2023-04-22T05:58:16.901Z,53.38
2023-04-22T05:59:26.969Z,53.45
2023-04-22T06:00:29.840Z,52.94
2023-04-22T06:01:38.202Z,52.93
2023-04-22T06:02:43.068Z,52.95
2023-04-22T06:03:46.029Z,52.24
2023-04-22T06:04:48.865Z,52.20
2023-04-22T06:05:51.589Z,52.20
2023-04-22T06:06:56.281Z,52.41
2023-04-22T06:07:58.591Z,52.20
2023-04-22T06:09:01.008Z,51.67
2023-04-22T06:10:05.569Z,51.34
2023-04-22T06:11:08.726Z,51.11
2023-04-22T06:12:11.594Z,51.15
2023-04-22T06:13:15.567Z,51.38
2023-04-22T06:14:18.347Z,51.55
2023-04-22T06:15:21.525Z,51.78
2023-04-22T06:16:25.703Z,51.19
2023-04-22T06:17:28.284Z,51.48
2023-04-22T06:18:37.866Z,51.55
2023-04-22T06:19:40.610Z,51.51
2023-04-22T06:20:43.371Z,51.43
2023-04-22T06:21:45.610Z,50.62
2023-04-22T06:22:48.242Z,49.98
2023-04-22T06:23:50.359Z,50.26
2023-04-22T06:24:52.688Z,50.66
2023-04-22T06:25:55.121Z,50.47
2023-04-22T06:26:58.780Z,50.50
2023-04-22T06:28:03.623Z,50.47
2023-04-22T06:29:06.183Z,50.71
2023-04-22T06:30:10.919Z,50.71
2023-04-22T06:31:13.388Z,50.81
2023-04-22T06:32:16.275Z,50.98
2023-04-22T06:33:18.521Z,50.94
2023-04-22T06:34:23.053Z,51.52
2023-04-22T06:35:27.619Z,51.61
2023-04-22T06:36:31.455Z,51.11
2023-04-22T06:37:36.859Z,51.12
2023-04-22T06:38:41.341Z,51.72
2023-04-22T06:39:48.499Z,52.19
2023-04-22T06:40:53.884Z,52.42
2023-04-22T06:42:01.197Z,52.73
2023-04-22T06:43:11.055Z,52.64
2023-04-22T06:44:16.032Z,52.62
2023-04-22T06:45:20.303Z,52.57
2023-04-22T06:47:54.443Z,52.39
2023-04-22T06:48:59.157Z,52.46
2023-04-22T06:50:20.242Z,52.21
2023-04-22T06:51:24.589Z,51.54
2023-04-22T06:52:27.270Z,51.16
2023-04-22T06:53:31.228Z,51.08
2023-04-22T06:54:33.755Z,50.34
2023-04-22T06:55:36.202Z,50.52
2023-04-22T06:56:39.540Z,51.05
2023-04-22T06:57:42.237Z,50.77
2023-04-22T06:58:45.045Z,50.21
2023-04-22T06:59:47.529Z,49.99
2023-04-22T07:00:50.830Z,50.21
2023-04-22T07:01:53.683Z,50.24
2023-04-22T07:02:56.917Z,49.75
2023-04-22T07:03:59.578Z,49.96
2023-04-22T07:05:02.925Z,50.20
2023-04-22T07:06:06.152Z,49.10
2023-04-22T07:07:09.620Z,48.97
2023-04-22T07:08:12.055Z,48.63
2023-04-22T07:09:14.946Z,48.97
2023-04-22T07:10:18.523Z,48.84
2023-04-22T07:11:22.825Z,49.12
2023-04-22T07:12:27.099Z,48.52
2023-04-22T07:13:31.531Z,48.51
2023-04-22T07:14:34.438Z,48.99
2023-04-22T07:15:36.625Z,48.21
2023-04-22T07:16:39.734Z,48.08
2023-04-22T07:17:42.541Z,47.94
2023-04-22T07:18:44.946Z,47.61
2023-04-22T07:19:47.784Z,48.02
2023-04-22T07:20:51.087Z,48.06
2023-04-22T07:21:54.051Z,48.19
2023-04-22T07:22:56.919Z,46.87
2023-04-22T07:23:59.441Z,47.36
2023-04-22T07:25:01.992Z,47.43
2023-04-22T07:26:06.455Z,47.56
2023-04-22T07:27:08.874Z,46.35
2023-04-22T07:28:11.121Z,46.17
2023-04-22T07:29:14.461Z,46.03
2023-04-22T07:30:16.650Z,45.95
2023-04-22T07:31:18.933Z,45.35
2023-04-22T07:32:21.378Z,45.73
2023-04-22T07:33:23.650Z,45.89
2023-04-22T07:34:26.805Z,45.88
2023-04-22T07:35:30.286Z,45.49
2023-04-22T07:36:32.612Z,46.05
2023-04-22T07:37:34.956Z,46.03
2023-04-22T07:38:38.286Z,46.31
2023-04-22T07:39:41.512Z,45.50
2023-04-22T07:40:44.224Z,45.17
2023-04-22T07:41:46.444Z,44.87
2023-04-22T07:42:49.767Z,44.67
2023-04-22T07:43:52.967Z,45.40
2023-04-22T07:44:55.360Z,45.03
2023-04-22T07:45:57.886Z,44.17
2023-04-22T07:47:01.217Z,44.82
2023-04-22T07:48:04.397Z,43.57
2023-04-22T07:49:07.403Z,44.18
2023-04-22T07:50:10.864Z,43.78
2023-04-22T07:51:13.275Z,43.50
2023-04-22T07:52:15.511Z,42.40
2023-04-22T07:53:19.300Z,42.25
2023-04-22T07:54:21.678Z,42.33
2023-04-22T07:55:24.015Z,42.81
2023-04-22T07:56:26.849Z,43.33
2023-04-22T07:57:29.255Z,43.66
2023-04-22T07:58:31.832Z,42.71
2023-04-22T07:59:33.977Z,42.43
2023-04-22T08:00:36.900Z,42.52
2023-04-22T08:01:39.469Z,43.15
2023-04-22T08:02:43.424Z,42.91
2023-04-22T08:03:45.957Z,43.06
2023-04-22T08:04:48.177Z,42.25
2023-04-22T08:05:52.617Z,41.07
2023-04-22T08:06:55.644Z,41.16
2023-04-22T08:07:58.197Z,41.34
2023-04-22T08:09:01.023Z,41.36
2023-04-22T08:10:04.948Z,41.88
2023-04-22T08:11:07.219Z,42.08
2023-04-22T08:12:09.536Z,42.49
2023-04-22T08:13:12.190Z,42.07
2023-04-22T08:14:15.820Z,41.38
2023-04-22T08:15:18.659Z,40.98
2023-04-22T08:16:21.503Z,41.24
2023-04-22T08:17:23.941Z,42.03
2023-04-22T08:18:27.082Z,42.21
2023-04-22T08:19:29.623Z,42.25
2023-04-22T08:20:31.836Z,42.87
2023-04-22T08:21:36.563Z,42.88
2023-04-22T08:22:40.029Z,43.02
2023-04-22T08:23:42.390Z,42.75
2023-04-22T08:24:45.253Z,42.91
2023-04-22T08:25:48.332Z,43.06
2023-04-22T08:26:50.850Z,42.94
2023-04-22T08:27:53.154Z,42.38
2023-04-22T08:28:56.002Z,42.24
2023-04-22T08:29:58.490Z,41.98
2023-04-22T08:31:02.622Z,42.42
2023-04-22T08:32:04.939Z,42.38
2023-04-22T08:33:07.751Z,42.31
2023-04-22T08:34:10.018Z,42.24
2023-04-22T08:35:12.370Z,42.63
2023-04-22T08:36:15.004Z,42.79
2023-04-22T08:37:18.517Z,42.19
2023-04-22T08:38:20.783Z,41.60
2023-04-22T08:39:22.945Z,42.11
2023-04-22T08:40:25.265Z,42.74
2023-04-22T08:41:27.912Z,42.57
2023-04-22T08:42:30.706Z,41.93
2023-04-22T08:43:34.014Z,42.07
2023-04-22T08:44:38.654Z,42.25
2023-04-22T08:45:41.656Z,41.97
2023-04-22T08:46:48.496Z,42.29
2023-04-22T08:47:53.275Z,42.33
2023-04-22T08:48:58.142Z,41.09
2023-04-22T08:50:03.223Z,44.31
2023-04-22T08:51:08.794Z,48.38
2023-04-22T08:52:12.279Z,42.99
2023-04-22T08:53:15.551Z,43.53
2023-04-22T08:54:18.729Z,42.59
2023-04-22T08:55:21.484Z,40.32
2023-04-22T08:56:24.741Z,40.62
2023-04-22T08:57:29.368Z,41.79
2023-04-22T08:58:34.258Z,42.43
2023-04-22T08:59:38.613Z,41.38
2023-04-22T09:01:55.877Z,41.30
2023-04-22T09:03:02.485Z,40.26
2023-04-22T09:04:05.942Z,40.43
2023-04-22T09:05:09.992Z,42.19
2023-04-22T09:06:12.588Z,42.02
2023-04-22T09:07:26.280Z,41.10
2023-04-22T09:08:31.425Z,40.41
2023-04-22T09:09:34.022Z,38.41
2023-04-22T09:10:37.730Z,38.38
2023-04-22T09:11:40.192Z,42.10
2023-04-22T09:12:43.177Z,41.74
2023-04-22T09:13:46.908Z,38.35
2023-04-22T09:14:49.247Z,41.14
2023-04-22T09:15:51.510Z,41.08
2023-04-22T09:16:53.737Z,38.75
2023-04-22T09:17:58.948Z,37.07
2023-04-22T09:19:01.950Z,38.63
2023-04-22T09:20:07.198Z,40.60
2023-04-22T09:21:10.632Z,38.50
2023-04-22T09:22:15.558Z,40.42
2023-04-22T09:23:18.452Z,40.00
2023-04-22T09:24:21.920Z,41.06
2023-04-22T09:25:27.835Z,39.10
2023-04-22T09:26:30.704Z,36.51
2023-04-22T09:27:35.512Z,39.80
2023-04-22T09:28:37.841Z,38.72
2023-04-22T09:29:44.934Z,38.08
2023-04-22T09:30:47.304Z,39.65
2023-04-22T09:31:51.070Z,38.92
2023-04-22T09:32:56.473Z,36.83
2023-04-22T09:34:00.326Z,35.74
2023-04-22T09:35:03.337Z,35.27
2023-04-22T09:36:09.610Z,36.78
2023-04-22T09:37:12.315Z,40.22
2023-04-22T09:38:20.682Z,38.00
2023-04-22T09:40:45.891Z,34.66
2023-04-22T09:41:52.907Z,35.23
2023-04-22T09:42:57.865Z,36.51
2023-04-22T09:44:02.348Z,37.38
2023-04-22T09:45:05.588Z,33.99
2023-04-22T09:46:10.841Z,33.61
2023-04-22T09:47:14.836Z,33.59
2023-04-22T09:48:19.937Z,32.83
2023-04-22T09:49:22.809Z,39.32
2023-04-22T09:50:26.743Z,33.83
2023-04-22T09:51:31.108Z,33.50
2023-04-22T09:52:33.611Z,36.86
2023-04-22T09:53:38.701Z,37.74
2023-04-22T09:54:46.494Z,34.72
2023-04-22T09:55:52.340Z,33.05
2023-04-22T09:56:54.964Z,35.59
2023-04-22T09:57:57.851Z,32.64
2023-04-22T09:59:01.206Z,32.06
2023-04-22T10:00:07.484Z,31.60
2023-04-22T10:01:09.820Z,33.38
2023-04-22T10:02:14.973Z,32.98
2023-04-22T10:03:24.966Z,31.87
2023-04-22T10:04:32.684Z,33.08
2023-04-22T10:05:37.891Z,34.44
2023-04-22T10:06:44.409Z,32.70
2023-04-22T10:07:49.603Z,33.49
2023-04-22T10:08:52.749Z,33.58
2023-04-22T10:09:55.655Z,34.36
2023-04-22T10:10:58.363Z,37.14
2023-04-22T10:12:00.795Z,32.81
2023-04-22T10:13:04.643Z,35.89
2023-04-22T10:14:08.950Z,31.77
2023-04-22T10:15:11.330Z,31.34
2023-04-22T10:16:14.600Z,31.72
2023-04-22T10:17:18.407Z,31.95
2023-04-22T10:18:24.325Z,30.19
2023-04-22T10:19:27.469Z,32.92
2023-04-22T10:20:33.416Z,31.45
2023-04-22T10:21:37.408Z,32.53
2023-04-22T10:22:42.282Z,33.04
2023-04-22T10:23:48.715Z,31.67
2023-04-22T10:24:52.979Z,30.94
2023-04-22T10:25:56.766Z,30.53
2023-04-22T10:27:06.206Z,31.15
2023-04-22T10:28:10.986Z,30.79
2023-04-22T10:29:18.971Z,31.20
2023-04-22T10:30:30.710Z,31.09
2023-04-22T10:31:33.873Z,32.58
2023-04-22T10:32:36.577Z,34.33
2023-04-22T10:33:39.506Z,30.37
2023-04-22T10:34:42.308Z,28.56
2023-04-22T10:36:05.052Z,29.60
2023-04-22T10:37:11.882Z,31.02
2023-04-22T10:38:15.665Z,28.84
2023-04-22T10:39:21.382Z,29.71
2023-04-22T10:40:23.693Z,29.60
2023-04-22T10:41:32.527Z,33.10
2023-04-22T10:42:35.813Z,33.44
2023-04-22T10:43:47.352Z,28.24
2023-04-22T10:44:53.102Z,29.11
2023-04-22T10:45:55.991Z,27.84
2023-04-22T10:47:00.066Z,27.08
2023-04-22T10:48:04.049Z,29.93
2023-04-22T10:49:08.313Z,29.97
2023-04-22T10:50:23.493Z,27.84
2023-04-22T10:51:47.491Z,28.06
2023-04-22T10:52:57.963Z,27.12
2023-04-22T10:54:02.412Z,28.17
2023-04-22T10:55:05.359Z,28.69
2023-04-22T10:57:35.681Z,28.79
2023-04-22T10:58:38.519Z,28.52
2023-04-22T10:59:53.341Z,36.45
2023-04-22T11:01:00.605Z,26.80
2023-04-22T11:02:07.189Z,27.54
2023-04-22T11:03:13.197Z,29.21
2023-04-22T11:04:23.278Z,28.73
2023-04-22T11:05:27.751Z,27.22
2023-04-22T11:06:30.733Z,27.13
2023-04-22T11:07:34.972Z,28.12
2023-04-22T11:08:37.971Z,28.12
2023-04-22T11:09:41.392Z,27.85
2023-04-22T11:10:46.583Z,27.73
2023-04-22T11:11:50.549Z,27.98
2023-04-22T11:12:55.093Z,29.60
2023-04-22T11:13:57.731Z,31.49
2023-04-22T11:15:01.874Z,28.59
2023-04-22T11:16:07.765Z,28.59
2023-04-22T11:17:10.452Z,28.77
2023-04-22T11:19:32.832Z,27.83
2023-04-22T11:20:35.224Z,29.11
2023-04-22T11:21:38.973Z,27.13
2023-04-22T11:22:47.511Z,26.38
2023-04-22T11:23:53.907Z,26.27
2023-04-22T11:25:00.300Z,26.21
2023-04-22T11:26:06.570Z,26.46
2023-04-22T11:27:08.850Z,26.99
2023-04-22T11:28:11.156Z,26.65
2023-04-22T11:29:13.501Z,26.80
2023-04-22T11:30:21.580Z,26.49
2023-04-22T11:31:24.396Z,26.34
2023-04-22T11:32:29.321Z,26.94
2023-04-22T11:33:33.791Z,26.56
2023-04-22T11:34:36.156Z,26.25
2023-04-22T11:35:38.982Z,26.22
2023-04-22T11:36:45.261Z,26.54
2023-04-22T11:37:55.377Z,26.80
2023-04-22T11:38:57.654Z,26.89
2023-04-22T11:40:21.585Z,26.99
2023-04-22T11:41:07.857Z,26.79
2023-04-22T11:42:14.026Z,26.84
2023-04-22T11:43:18.875Z,27.03
2023-04-22T11:44:27.662Z,27.05
2023-04-22T11:45:32.321Z,27.71
2023-04-22T11:46:39.918Z,28.06
2023-04-22T11:47:44.665Z,28.56
2023-04-22T11:48:47.038Z,28.78
2023-04-22T11:49:58.632Z,28.28
2023-04-22T11:51:11.144Z,28.05
2023-04-22T11:52:13.535Z,28.89
2023-04-22T11:53:18.472Z,27.64
2023-04-22T11:54:33.974Z,28.03
2023-04-22T11:55:39.137Z,27.30
2023-04-22T11:56:41.726Z,27.65
2023-04-22T11:57:45.781Z,28.28
2023-04-22T11:58:48.194Z,28.71
2023-04-22T11:59:58.740Z,28.39
2023-04-22T12:01:00.991Z,28.64
2023-04-22T12:02:07.821Z,28.41
2023-04-22T12:03:18.813Z,27.29
2023-04-22T12:04:23.114Z,27.33
2023-04-22T12:06:47.664Z,26.97
2023-04-22T12:07:50.765Z,28.31
2023-04-22T12:08:54.798Z,28.26
2023-04-22T12:10:00.338Z,27.54
2023-04-22T12:11:06.367Z,27.38
2023-04-22T12:12:09.376Z,26.71
2023-04-22T12:13:31.705Z,27.39
2023-04-22T12:14:34.978Z,27.67
2023-04-22T12:16:51.404Z,26.92
2023-04-22T12:17:54.595Z,27.23
2023-04-22T12:18:57.262Z,26.75
2023-04-22T12:19:59.407Z,27.10
2023-04-22T12:21:08.171Z,27.61
2023-04-22T12:22:10.864Z,27.48
2023-04-22T12:23:14.837Z,28.28
2023-04-22T12:24:19.498Z,28.28
2023-04-22T12:25:21.847Z,28.68
2023-04-22T12:26:27.128Z,27.65
2023-04-22T12:27:31.111Z,28.81
2023-04-22T12:28:42.242Z,28.36
2023-04-22T12:29:54.648Z,28.61
2023-04-22T12:30:56.988Z,29.91
2023-04-22T12:32:00.285Z,28.40
2023-04-22T12:33:02.594Z,29.14
2023-04-22T12:34:05.598Z,29.30
2023-04-22T12:35:09.180Z,28.85
2023-04-22T12:36:13.976Z,30.42
2023-04-22T12:37:17.240Z,29.24
2023-04-22T12:38:20.617Z,29.24
2023-04-22T12:39:23.025Z,30.25
2023-04-22T12:40:25.678Z,30.92
2023-04-22T12:41:28.079Z,30.92
2023-04-22T12:42:30.872Z,29.45
2023-04-22T12:43:37.123Z,28.93
2023-04-22T12:44:40.220Z,30.92
2023-04-22T12:45:43.117Z,30.32
2023-04-22T12:46:46.405Z,30.61
2023-04-22T12:47:56.174Z,28.60
2023-04-22T12:48:58.745Z,28.50
2023-04-22T12:50:04.884Z,29.71
2023-04-22T12:51:08.627Z,27.87
2023-04-22T12:52:11.759Z,28.98
2023-04-22T12:53:15.942Z,28.53
2023-04-22T12:54:22.799Z,29.36
2023-04-22T12:55:25.769Z,27.64
2023-04-22T12:56:28.372Z,29.35
2023-04-22T12:57:31.056Z,29.46
2023-04-22T12:58:33.289Z,27.92
2023-04-22T12:59:35.564Z,26.85
2023-04-22T13:00:37.786Z,27.69
2023-04-22T13:01:40.212Z,28.45
2023-04-22T13:02:43.501Z,27.18
2023-04-22T13:03:46.154Z,29.27
2023-04-22T13:04:49.540Z,27.97
2023-04-22T13:05:52.598Z,26.89
2023-04-22T13:08:08.187Z,28.68
2023-04-22T13:09:13.787Z,27.76
2023-04-22T13:10:17.314Z,29.60
2023-04-22T13:11:20.424Z,28.08
2023-04-22T13:12:22.732Z,27.58
2023-04-22T13:13:25.600Z,28.12
2023-04-22T13:14:28.330Z,27.44
2023-04-22T13:15:31.941Z,29.10
2023-04-22T13:16:35.657Z,27.25
2023-04-22T13:17:38.614Z,27.82
2023-04-22T13:18:40.974Z,27.80
2023-04-22T13:19:43.627Z,28.12
2023-04-22T13:20:48.210Z,28.40
2023-04-22T13:21:50.895Z,29.53
2023-04-22T13:22:53.702Z,28.11
2023-04-22T13:23:56.106Z,29.19
2023-04-22T13:24:58.528Z,28.45
2023-04-22T13:26:03.886Z,28.58
2023-04-22T13:27:07.679Z,28.60
2023-04-22T13:28:10.830Z,30.15
2023-04-22T13:29:14.190Z,28.25
2023-04-22T13:30:16.923Z,29.27
2023-04-22T13:31:20.616Z,30.08
2023-04-22T13:32:23.136Z,29.89
2023-04-22T13:33:25.544Z,30.94
2023-04-22T13:34:28.183Z,28.91
2023-04-22T13:35:30.727Z,29.21
2023-04-22T13:36:34.250Z,30.38
2023-04-22T13:37:36.654Z,30.38
2023-04-22T13:38:39.120Z,29.75
2023-04-22T13:39:41.847Z,29.64
2023-04-22T13:40:44.927Z,29.57
2023-04-22T13:41:48.514Z,30.61
2023-04-22T13:42:50.987Z,29.72
2023-04-22T13:43:55.312Z,29.89
2023-04-22T13:44:57.623Z,29.44
2023-04-22T13:46:00.271Z,30.32
2023-04-22T13:47:02.958Z,30.43
2023-04-22T13:48:05.583Z,29.79
2023-04-22T13:49:08.901Z,29.45
2023-04-22T13:50:12.182Z,28.77
2023-04-22T13:51:14.702Z,30.95
2023-04-22T13:52:17.163Z,30.23